Time;durP1;ratioP1;P1;durP2;ratioP2;P2;SDS_P1;SDS_P2;PMS_P1;PMS_P2;Temp;Humidity;BMP_temperature;BMP_pressure;BME280_temperature;BME280_humidity;BME280_pressure;Samples;Min_cycle;Max_cycle;Signal;HPM_P1;HPM_P2
2023/09/29 00:02:23;;;;;;;22.83;7.20;;;;;;;;;;5073126;28;20104;-58
2023/09/29 00:04:49;;;;;;;29.77;7.30;;;;;;;;;;5077170;28;20047;-58
2023/09/29 00:07:16;;;;;;;22.58;7.22;;;;;;;;;;5073721;28;20043;-57
2023/09/29 00:09:43;;;;;;;23.20;6.82;;;;;;;;;;5075352;28;20058;-58
2023/09/29 00:12:09;;;;;;;23.92;7.28;;;;;;;;;;5074574;28;20048;-58
2023/09/29 00:14:35;;;;;;;23.58;6.95;;;;;;;;;;5075941;28;20414;-58
2023/09/29 00:17:01;;;;;;;22.75;7.40;;;;;;;;;;5073395;28;20044;-58
2023/09/29 00:19:27;;;;;;;17.60;6.25;;;;;;;;;;5075989;28;20169;-57
2023/09/29 00:21:53;;;;;;;27.40;5.95;;;;;;;;;;5072463;28;20543;-57
2023/09/29 00:24:20;;;;;;;23.52;6.78;;;;;;;;;;5082088;28;20043;-58
2023/09/29 00:26:46;;;;;;;21.52;6.13;;;;;;;;;;5079322;28;20044;-58
2023/09/29 00:29:12;;;;;;;24.77;6.45;;;;;;;;;;5075162;28;20066;-58
2023/09/29 00:31:38;;;;;;;21.33;6.03;;;;;;;;;;5072211;28;20044;-58
2023/09/29 00:34:06;;;;;;;25.88;6.22;;;;;;;;;;5075002;28;20073;-58
2023/09/29 00:36:32;;;;;;;21.67;6.20;;;;;;;;;;5080560;28;20141;-58
2023/09/29 00:38:58;;;;;;;22.05;6.88;;;;;;;;;;5075662;28;20395;-58
2023/09/29 00:41:25;;;;;;;17.13;6.03;;;;;;;;;;5075985;28;20051;-57
2023/09/29 00:43:51;;;;;;;18.48;6.38;;;;;;;;;;5074005;28;20425;-57
2023/09/29 00:46:19;;;;;;;20.10;5.72;;;;;;;;;;5070041;28;20036;-58
2023/09/29 00:48:45;;;;;;;27.00;6.55;;;;;;;;;;5074134;28;20051;-58
2023/09/29 00:51:12;;;;;;;21.33;6.55;;;;;;;;;;5078383;28;20491;-58
2023/09/29 00:53:39;;;;;;;27.50;7.15;;;;;;;;;;5070006;28;20044;-57
2023/09/29 00:56:06;;;;;;;17.60;5.78;;;;;;;;;;5074624;28;20047;-58
2023/09/29 00:58:32;;;;;;;28.23;7.28;;;;;;;;;;5077007;28;20075;-58
2023/09/29 01:01:00;;;;;;;28.00;6.80;;;;;;;;;;5071549;28;20036;-58
2023/09/29 01:03:27;;;;;;;28.23;6.45;;;;;;;;;;5076088;28;20040;-58
2023/09/29 01:05:54;;;;;;;25.95;7.07;;;;;;;;;;5071378;28;20040;-58
2023/09/29 01:08:21;;;;;;;24.00;5.82;;;;;;;;;;5074343;28;20179;-57
2023/09/29 01:10:48;;;;;;;24.02;5.90;;;;;;;;;;5084056;28;20044;-58
2023/09/29 01:13:15;;;;;;;17.60;6.28;;;;;;;;;;5076143;28;20063;-58
2023/09/29 01:15:42;;;;;;;25.83;7.13;;;;;;;;;;5071490;28;20564;-58
2023/09/29 01:18:11;;;;;;;22.77;6.22;;;;;;;;;;5083845;28;20130;-58
2023/09/29 01:20:40;;;;;;;21.67;5.70;;;;;;;;;;5078096;28;20551;-57
2023/09/29 01:23:07;;;;;;;24.00;6.38;;;;;;;;;;5070720;28;20032;-58
2023/09/29 01:25:34;;;;;;;21.33;6.10;;;;;;;;;;5071242;28;20087;-58
2023/09/29 01:28:02;;;;;;;18.20;5.10;;;;;;;;;;5073289;28;20059;-58
2023/09/29 01:30:28;;;;;;;19.15;5.55;;;;;;;;;;5069698;28;20048;-58
2023/09/29 01:32:57;;;;;;;17.08;4.43;;;;;;;;;;5078133;28;21618;-58
2023/09/29 01:35:24;;;;;;;20.52;5.57;;;;;;;;;;5081541;28;20492;-58
2023/09/29 01:37:50;;;;;;;16.92;4.85;;;;;;;;;;5076856;28;20035;-58
2023/09/29 01:40:23;;;;;;;22.42;5.63;;;;;;;;;;5071705;28;20138;-58
2023/09/29 01:42:50;;;;;;;20.08;4.95;;;;;;;;;;5073841;28;20401;-58
2023/09/29 01:45:17;;;;;;;20.27;5.78;;;;;;;;;;5072720;28;20119;-57
2023/09/29 01:47:45;;;;;;;19.90;4.90;;;;;;;;;;5065432;28;20113;-58
2023/09/29 01:50:20;;;;;;;18.38;4.78;;;;;;;;;;5075604;28;20462;-58
2023/09/29 01:52:47;;;;;;;18.00;4.75;;;;;;;;;;5072661;28;20040;-57
2023/09/29 01:55:14;;;;;;;19.25;4.80;;;;;;;;;;5074494;28;20421;-58
2023/09/29 01:57:42;;;;;;;24.92;5.15;;;;;;;;;;5066674;28;20399;-58
2023/09/29 02:00:19;;;;;;;30.40;5.50;;;;;;;;;;5074193;28;20127;-57
2023/09/29 02:02:46;;;;;;;18.15;4.93;;;;;;;;;;5082033;28;20376;-58
2023/09/29 02:05:12;;;;;;;16.50;4.47;;;;;;;;;;5055634;28;20102;-58
2023/09/29 02:07:39;;;;;;;24.33;5.65;;;;;;;;;;5078012;28;20516;-58
2023/09/29 02:10:07;;;;;;;17.00;5.10;;;;;;;;;;5076952;28;20368;-58
2023/09/29 02:12:34;;;;;;;18.70;6.15;;;;;;;;;;5077315;28;20048;-57
2023/09/29 02:15:01;;;;;;;21.25;5.00;;;;;;;;;;5070171;28;20035;-58
2023/09/29 02:17:28;;;;;;;25.50;6.75;;;;;;;;;;5077366;28;20091;-58
2023/09/29 02:19:54;;;;;;;17.38;5.90;;;;;;;;;;5086486;28;20032;-58
2023/09/29 02:22:21;;;;;;;27.33;5.57;;;;;;;;;;5078504;28;20180;-58
2023/09/29 02:24:48;;;;;;;22.60;5.55;;;;;;;;;;5074521;28;20119;-58
2023/09/29 02:27:16;;;;;;;24.08;5.85;;;;;;;;;;5069159;28;20040;-58
2023/09/29 02:29:42;;;;;;;22.13;5.97;;;;;;;;;;5074679;28;20451;-58
2023/09/29 02:32:09;;;;;;;21.92;4.85;;;;;;;;;;5071353;28;20039;-57
2023/09/29 02:34:35;;;;;;;18.08;4.95;;;;;;;;;;5073077;28;20058;-57
2023/09/29 02:37:01;;;;;;;19.33;6.03;;;;;;;;;;5073622;28;20067;-58
2023/09/29 02:39:27;;;;;;;22.17;5.47;;;;;;;;;;5074365;28;20035;-58
2023/09/29 02:41:54;;;;;;;17.23;4.63;;;;;;;;;;5071464;28;20035;-58
2023/09/29 02:44:20;;;;;;;22.20;4.50;;;;;;;;;;5073948;28;20062;-58
2023/09/29 02:46:46;;;;;;;22.23;5.72;;;;;;;;;;5079113;28;21803;-58
2023/09/29 02:49:12;;;;;;;20.50;6.30;;;;;;;;;;5068544;28;20055;-58
2023/09/29 02:51:38;;;;;;;16.55;4.82;;;;;;;;;;5073079;28;20047;-58
2023/09/29 02:54:10;;;;;;;22.27;5.45;;;;;;;;;;5071634;28;20488;-58
2023/09/29 02:56:36;;;;;;;23.55;5.93;;;;;;;;;;5079491;28;20178;-57
2023/09/29 02:59:06;;;;;;;18.30;5.38;;;;;;;;;;5085218;28;20096;-58
2023/09/29 03:01:32;;;;;;;25.48;5.45;;;;;;;;;;5070673;28;20119;-58
2023/09/29 03:03:58;;;;;;;15.82;4.55;;;;;;;;;;5081662;28;20044;-58
2023/09/29 03:06:25;;;;;;;16.63;4.78;;;;;;;;;;5072572;28;20416;-58
2023/09/29 03:08:54;;;;;;;19.13;4.82;;;;;;;;;;5075189;28;20307;-58
2023/09/29 03:11:24;;;;;;;17.25;4.88;;;;;;;;;;5071727;28;20059;-58
2023/09/29 03:13:54;;;;;;;25.52;5.78;;;;;;;;;;5076826;28;20040;-58
2023/09/29 03:16:21;;;;;;;18.40;4.50;;;;;;;;;;5071363;28;20080;-58
2023/09/29 03:18:47;;;;;;;14.35;4.75;;;;;;;;;;5074249;28;20040;-58
2023/09/29 03:21:14;;;;;;;23.15;5.85;;;;;;;;;;5087821;28;20080;-58
2023/09/29 03:23:42;;;;;;;17.80;4.80;;;;;;;;;;5069208;28;20051;-58
2023/09/29 03:26:09;;;;;;;22.73;5.72;;;;;;;;;;5078220;28;20093;-57
2023/09/29 03:28:36;;;;;;;19.15;4.40;;;;;;;;;;5075268;28;20097;-57
2023/09/29 03:31:07;;;;;;;20.63;4.32;;;;;;;;;;5076779;28;20044;-58
2023/09/29 03:33:33;;;;;;;20.02;4.47;;;;;;;;;;5074600;28;20032;-58
2023/09/29 03:35:59;;;;;;;13.70;4.35;;;;;;;;;;5077937;28;20123;-57
2023/09/29 03:38:26;;;;;;;19.13;4.75;;;;;;;;;;5078010;28;20516;-58
2023/09/29 03:40:53;;;;;;;18.90;4.20;;;;;;;;;;5078368;28;20040;-58
2023/09/29 03:43:23;;;;;;;19.08;4.75;;;;;;;;;;5075001;28;20107;-58
2023/09/29 03:45:53;;;;;;;23.77;4.82;;;;;;;;;;5075548;28;20055;-58
2023/09/29 03:48:20;;;;;;;18.45;4.38;;;;;;;;;;5071984;28;20055;-58
2023/09/29 03:50:49;;;;;;;20.70;4.43;;;;;;;;;;5076787;28;20072;-58
2023/09/29 03:53:16;;;;;;;22.95;4.65;;;;;;;;;;5083832;28;20087;-58
2023/09/29 03:55:43;;;;;;;13.40;3.95;;;;;;;;;;5076291;28;20040;-58
2023/09/29 03:58:09;;;;;;;17.50;4.03;;;;;;;;;;5074607;28;20453;-58
2023/09/29 04:00:36;;;;;;;15.95;4.25;;;;;;;;;;5075584;28;20521;-57
2023/09/29 04:03:02;;;;;;;15.77;4.15;;;;;;;;;;5078579;28;20097;-58
2023/09/29 04:05:28;;;;;;;16.15;4.10;;;;;;;;;;5078511;28;20076;-58
2023/09/29 04:07:54;;;;;;;25.70;5.25;;;;;;;;;;5078980;28;20084;-58
2023/09/29 04:10:21;;;;;;;18.65;4.18;;;;;;;;;;5076298;28;20080;-58
2023/09/29 04:12:47;;;;;;;16.98;5.00;;;;;;;;;;5078221;28;20514;-58
2023/09/29 04:15:14;;;;;;;18.05;4.82;;;;;;;;;;5088401;28;20123;-58
2023/09/29 04:17:41;;;;;;;19.23;4.18;;;;;;;;;;5071977;28;20404;-57
2023/09/29 04:20:07;;;;;;;16.65;4.22;;;;;;;;;;5072052;28;20132;-57
2023/09/29 04:22:34;;;;;;;18.38;4.22;;;;;;;;;;5077243;28;20037;-58
2023/09/29 04:25:00;;;;;;;18.40;4.15;;;;;;;;;;5075425;28;20168;-58
2023/09/29 04:27:27;;;;;;;16.73;3.90;;;;;;;;;;5090328;28;20048;-58
2023/09/29 04:29:53;;;;;;;17.38;4.40;;;;;;;;;;5092362;28;20047;-58
2023/09/29 04:32:19;;;;;;;17.58;4.35;;;;;;;;;;5077456;28;20253;-58
2023/09/29 04:34:46;;;;;;;21.98;4.63;;;;;;;;;;5086324;28;20056;-58
2023/09/29 04:37:12;;;;;;;18.75;5.00;;;;;;;;;;5073310;28;20097;-58
2023/09/29 04:39:38;;;;;;;22.52;5.78;;;;;;;;;;5072485;28;20396;-58
2023/09/29 04:42:05;;;;;;;18.23;4.90;;;;;;;;;;5084111;28;20089;-58
2023/09/29 04:44:31;;;;;;;20.08;4.50;;;;;;;;;;5090335;28;20076;-58
2023/09/29 04:46:57;;;;;;;15.73;4.20;;;;;;;;;;5076938;28;20059;-58
2023/09/29 04:49:24;;;;;;;17.77;4.30;;;;;;;;;;5084799;28;20361;-58
2023/09/29 04:51:50;;;;;;;15.40;4.35;;;;;;;;;;5083713;28;20043;-58
2023/09/29 04:54:16;;;;;;;17.70;4.50;;;;;;;;;;5082642;28;20044;-58
2023/09/29 04:56:42;;;;;;;16.30;3.88;;;;;;;;;;5092426;28;20040;-58
2023/09/29 04:59:08;;;;;;;18.95;4.60;;;;;;;;;;5087763;28;20195;-58
2023/09/29 05:01:38;;;;;;;20.80;5.20;;;;;;;;;;5080973;28;20098;-58
2023/09/29 05:04:05;;;;;;;15.23;3.90;;;;;;;;;;5089661;28;20401;-58
2023/09/29 05:06:31;;;;;;;24.45;4.68;;;;;;;;;;5087127;28;20048;-57
2023/09/29 05:08:57;;;;;;;18.27;5.20;;;;;;;;;;5068321;28;20059;-59
2023/09/29 05:11:24;;;;;;;15.85;4.70;;;;;;;;;;5071720;28;20508;-61
2023/09/29 05:13:54;;;;;;;17.60;4.40;;;;;;;;;;5083570;28;20177;-58
2023/09/29 05:16:20;;;;;;;14.88;4.60;;;;;;;;;;5070481;28;20406;-58
2023/09/29 05:18:47;;;;;;;26.45;5.05;;;;;;;;;;5069834;28;20555;-58
2023/09/29 05:21:14;;;;;;;19.33;5.43;;;;;;;;;;5065707;28;20113;-58
2023/09/29 05:23:40;;;;;;;19.95;4.60;;;;;;;;;;5069913;28;20465;-58
2023/09/29 05:26:07;;;;;;;20.13;5.40;;;;;;;;;;5074137;28;20385;-58
2023/09/29 05:28:34;;;;;;;16.40;4.18;;;;;;;;;;5071808;28;20056;-58
2023/09/29 05:31:00;;;;;;;13.77;5.30;;;;;;;;;;5065892;28;20036;-59
2023/09/29 05:33:27;;;;;;;19.52;3.88;;;;;;;;;;5071215;28;20036;-58
2023/09/29 05:35:53;;;;;;;20.38;4.78;;;;;;;;;;5070991;28;20060;-58
2023/09/29 05:38:19;;;;;;;16.95;4.85;;;;;;;;;;5071383;28;20373;-58
2023/09/29 05:40:48;;;;;;;20.77;4.78;;;;;;;;;;5070774;28;20051;-58
2023/09/29 05:43:14;;;;;;;18.25;4.18;;;;;;;;;;5074766;28;20052;-58
2023/09/29 05:45:41;;;;;;;13.32;5.13;;;;;;;;;;5069759;28;20087;-58
2023/09/29 05:48:07;;;;;;;18.63;5.05;;;;;;;;;;5069157;28;20112;-58
2023/09/29 05:50:34;;;;;;;22.33;5.25;;;;;;;;;;5070380;28;20464;-65
2023/09/29 05:53:00;;;;;;;20.45;6.57;;;;;;;;;;5069943;28;20084;-58
2023/09/29 05:55:26;;;;;;;17.38;5.47;;;;;;;;;;5070221;28;20351;-58
2023/09/29 05:57:52;;;;;;;22.33;5.57;;;;;;;;;;5074812;28;20127;-58
2023/09/29 06:00:20;;;;;;;14.65;4.43;;;;;;;;;;5091708;28;20046;-58
2023/09/29 06:02:47;;;;;;;15.13;4.80;;;;;;;;;;5069826;28;20266;-58
2023/09/29 06:05:13;;;;;;;17.70;5.15;;;;;;;;;;5069482;28;20413;-58
2023/09/29 06:07:40;;;;;;;20.05;5.10;;;;;;;;;;5076981;28;20039;-58
2023/09/29 06:10:06;;;;;;;16.65;5.72;;;;;;;;;;5090425;28;20185;-59
2023/09/29 06:12:33;;;;;;;17.98;5.15;;;;;;;;;;5074241;28;20524;-58
2023/09/29 06:14:59;;;;;;;16.33;4.60;;;;;;;;;;5067357;28;20041;-58
2023/09/29 06:17:25;;;;;;;18.65;6.40;;;;;;;;;;5068349;28;20424;-58
2023/09/29 06:19:51;;;;;;;25.15;7.15;;;;;;;;;;5076414;28;20035;-58
2023/09/29 06:22:18;;;;;;;16.85;4.78;;;;;;;;;;5080663;28;20048;-58
2023/09/29 06:24:45;;;;;;;15.32;5.45;;;;;;;;;;5081518;28;20190;-58
2023/09/29 06:27:11;;;;;;;15.50;5.55;;;;;;;;;;5078724;28;20045;-58
2023/09/29 06:29:39;;;;;;;23.40;5.63;;;;;;;;;;5088422;28;20151;-58
2023/09/29 06:32:06;;;;;;;22.33;5.53;;;;;;;;;;5072223;28;20044;-58
2023/09/29 06:34:32;;;;;;;13.93;5.13;;;;;;;;;;5065840;28;20124;-58
2023/09/29 06:36:58;;;;;;;14.18;5.40;;;;;;;;;;5069668;28;20037;-58
2023/09/29 06:39:24;;;;;;;22.80;5.22;;;;;;;;;;5084112;28;20498;-58
2023/09/29 06:41:51;;;;;;;21.63;5.55;;;;;;;;;;5056413;28;20036;-58
2023/09/29 06:44:17;;;;;;;15.55;5.43;;;;;;;;;;5082128;28;20051;-58
2023/09/29 06:46:43;;;;;;;11.60;4.50;;;;;;;;;;5090407;28;20032;-58
2023/09/29 06:49:10;;;;;;;16.75;4.82;;;;;;;;;;5089176;28;20448;-58
2023/09/29 06:51:36;;;;;;;13.50;4.80;;;;;;;;;;5082336;28;20088;-58
2023/09/29 06:54:03;;;;;;;13.93;4.70;;;;;;;;;;5078604;28;20040;-58
2023/09/29 06:56:29;;;;;;;16.33;4.93;;;;;;;;;;5083511;28;20047;-58
2023/09/29 06:58:55;;;;;;;11.82;4.10;;;;;;;;;;5083944;28;20125;-59
2023/09/29 07:01:22;;;;;;;15.60;4.47;;;;;;;;;;5080008;28;20466;-58
2023/09/29 07:03:48;;;;;;;16.42;5.32;;;;;;;;;;5090544;28;20082;-59
2023/09/29 07:06:15;;;;;;;16.50;5.60;;;;;;;;;;5085735;28;20139;-58
2023/09/29 07:08:41;;;;;;;17.65;4.88;;;;;;;;;;5083734;28;20457;-59
2023/09/29 07:11:08;;;;;;;14.52;4.03;;;;;;;;;;5084210;28;20044;-58
2023/09/29 07:13:34;;;;;;;16.55;5.18;;;;;;;;;;5066345;28;20044;-58
2023/09/29 07:16:01;;;;;;;16.40;5.07;;;;;;;;;;5080234;28;20032;-58
2023/09/29 07:18:27;;;;;;;14.00;4.68;;;;;;;;;;5090575;28;20506;-59
2023/09/29 07:20:53;;;;;;;16.60;5.00;;;;;;;;;;5089528;28;20125;-58
2023/09/29 07:23:23;;;;;;;12.13;4.55;;;;;;;;;;5090799;28;20437;-58
2023/09/29 07:25:51;;;;;;;11.32;4.35;;;;;;;;;;5083147;28;20077;-58
2023/09/29 07:28:18;;;;;;;12.80;4.70;;;;;;;;;;5079077;28;20052;-58
2023/09/29 07:30:47;;;;;;;10.65;4.22;;;;;;;;;;5069579;28;20059;-58
2023/09/29 07:33:14;;;;;;;17.33;5.50;;;;;;;;;;5073845;28;21245;-60
2023/09/29 07:35:43;;;;;;;15.15;5.30;;;;;;;;;;5080637;28;20040;-59
2023/09/29 07:38:10;;;;;;;18.77;5.43;;;;;;;;;;5090604;28;20162;-59
2023/09/29 07:40:36;;;;;;;15.88;6.47;;;;;;;;;;5082937;28;20048;-59
2023/09/29 07:43:02;;;;;;;12.60;5.03;;;;;;;;;;5086127;28;20036;-58
2023/09/29 07:45:29;;;;;;;20.60;6.95;;;;;;;;;;5079552;28;20067;-57
2023/09/29 07:47:55;;;;;;;17.30;4.93;;;;;;;;;;5083447;28;20076;-58
2023/09/29 07:50:21;;;;;;;15.57;5.90;;;;;;;;;;5057555;28;20074;-57
2023/09/29 07:52:47;;;;;;;16.27;6.53;;;;;;;;;;5082539;28;20040;-58
2023/09/29 07:55:14;;;;;;;15.95;7.30;;;;;;;;;;5079261;28;20075;-57
2023/09/29 07:57:40;;;;;;;19.42;7.97;;;;;;;;;;5089936;28;20502;-58
2023/09/29 08:00:10;;;;;;;22.90;9.60;;;;;;;;;;5088691;28;20131;-57
2023/09/29 08:02:36;;;;;;;22.55;9.05;;;;;;;;;;5070878;28;20052;-58
2023/09/29 08:05:03;;;;;;;23.92;8.55;;;;;;;;;;5081745;28;20123;-58
2023/09/29 08:07:29;;;;;;;20.60;8.82;;;;;;;;;;5093790;28;20428;-57
2023/09/29 08:09:56;;;;;;;25.55;10.40;;;;;;;;;;5092998;28;20083;-57
2023/09/29 08:12:22;;;;;;;20.30;9.60;;;;;;;;;;5074775;28;20071;-57
2023/09/29 08:14:48;;;;;;;25.08;10.30;;;;;;;;;;5093707;28;20051;-57
2023/09/29 08:17:14;;;;;;;25.08;9.55;;;;;;;;;;5092760;28;20557;-57
2023/09/29 08:19:40;;;;;;;21.33;10.05;;;;;;;;;;5093609;28;20079;-58
2023/09/29 08:22:07;;;;;;;20.83;9.55;;;;;;;;;;5088059;28;20566;-58
2023/09/29 08:24:33;;;;;;;23.65;9.43;;;;;;;;;;5083472;28;20040;-58
2023/09/29 08:27:03;;;;;;;22.08;10.05;;;;;;;;;;5093307;28;20472;-57
2023/09/29 08:29:29;;;;;;;24.35;10.43;;;;;;;;;;5093179;28;20142;-58
2023/09/29 08:31:58;;;;;;;20.75;9.00;;;;;;;;;;5092420;28;20054;-57
2023/09/29 08:34:24;;;;;;;26.90;10.63;;;;;;;;;;5087819;28;20098;-57
2023/09/29 08:36:52;;;;;;;16.33;8.23;;;;;;;;;;5092344;28;20150;-58
2023/09/29 08:39:18;;;;;;;23.17;8.15;;;;;;;;;;5093324;28;20040;-58
2023/09/29 08:41:56;;;;;;;16.98;8.10;;;;;;;;;;5093075;28;20078;-57
2023/09/29 08:44:24;;;;;;;17.45;7.75;;;;;;;;;;5089840;28;20060;-58
2023/09/29 08:46:50;;;;;;;17.50;7.82;;;;;;;;;;5091917;28;20153;-57
2023/09/29 08:49:18;;;;;;;14.88;6.20;;;;;;;;;;5093256;28;20043;-57
2023/09/29 08:51:48;;;;;;;12.25;6.13;;;;;;;;;;5091951;28;20040;-58
2023/09/29 08:54:15;;;;;;;13.60;5.47;;;;;;;;;;5086927;28;20480;-58
2023/09/29 08:56:42;;;;;;;17.05;5.28;;;;;;;;;;5088989;28;20518;-58
2023/09/29 08:59:08;;;;;;;10.23;5.10;;;;;;;;;;5087799;28;20159;-57
2023/09/29 09:01:35;;;;;;;11.50;5.63;;;;;;;;;;5083114;28;20123;-58
2023/09/29 09:04:01;;;;;;;11.68;4.75;;;;;;;;;;5092679;28;20047;-58
2023/09/29 09:06:30;;;;;;;14.93;5.70;;;;;;;;;;5091775;28;20050;-58
2023/09/29 09:08:56;;;;;;;10.80;4.93;;;;;;;;;;5092412;28;20186;-58
2023/09/29 09:11:27;;;;;;;8.90;3.88;;;;;;;;;;5089952;28;20092;-57
2023/09/29 09:14:04;;;;;;;8.10;4.18;;;;;;;;;;5081161;28;20048;-58
2023/09/29 09:16:36;;;;;;;11.70;4.65;;;;;;;;;;5066708;28;20093;-58
2023/09/29 09:19:12;;;;;;;8.45;4.07;;;;;;;;;;5091645;28;20124;-58
2023/09/29 09:21:39;;;;;;;11.55;3.90;;;;;;;;;;5092356;28;20416;-58
2023/09/29 09:24:17;;;;;;;8.95;3.92;;;;;;;;;;5084178;28;20146;-58
2023/09/29 09:26:43;;;;;;;14.85;4.50;;;;;;;;;;5077849;28;20089;-58
2023/09/29 09:29:10;;;;;;;8.48;3.53;;;;;;;;;;5086618;28;20698;-58
2023/09/29 09:31:43;;;;;;;9.85;3.65;;;;;;;;;;5091873;28;20131;-58
2023/09/29 09:34:10;;;;;;;11.88;3.60;;;;;;;;;;5091234;28;20050;-57
2023/09/29 09:36:55;;;;;;;11.27;4.07;;;;;;;;;;5084266;28;20072;-58
2023/09/29 09:39:22;;;;;;;8.93;4.13;;;;;;;;;;5092234;28;20090;-58
2023/09/29 09:41:58;;;;;;;10.85;3.97;;;;;;;;;;5080697;28;20044;-57
2023/09/29 09:44:25;;;;;;;12.88;4.07;;;;;;;;;;5091951;28;20050;-58
2023/09/29 09:46:53;;;;;;;12.32;3.65;;;;;;;;;;5091570;28;20123;-58
2023/09/29 09:49:23;;;;;;;8.90;3.90;;;;;;;;;;5090971;28;20500;-57
2023/09/29 09:51:52;;;;;;;8.30;3.58;;;;;;;;;;5089555;28;20043;-58
2023/09/29 09:54:20;;;;;;;8.77;3.40;;;;;;;;;;5091014;28;20048;-58
2023/09/29 09:56:51;;;;;;;9.15;3.97;;;;;;;;;;5084327;28;20464;-57
2023/09/29 09:59:17;;;;;;;10.85;4.13;;;;;;;;;;5077529;28;20044;-57
2023/09/29 10:01:45;;;;;;;8.13;3.78;;;;;;;;;;5090980;28;20048;-58
2023/09/29 10:04:12;;;;;;;10.75;4.15;;;;;;;;;;5091580;28;20036;-58
2023/09/29 10:06:43;;;;;;;10.90;4.05;;;;;;;;;;5091562;28;20040;-58
2023/09/29 10:09:13;;;;;;;12.20;4.00;;;;;;;;;;5090691;28;20063;-58
2023/09/29 10:11:44;;;;;;;9.43;3.85;;;;;;;;;;5066122;28;20056;-58
2023/09/29 10:14:10;;;;;;;12.55;3.63;;;;;;;;;;5071041;28;20036;-59
2023/09/29 10:16:38;;;;;;;11.00;3.72;;;;;;;;;;5090816;28;20140;-59
2023/09/29 10:19:12;;;;;;;12.95;4.28;;;;;;;;;;5072394;28;20059;-59
2023/09/29 10:21:45;;;;;;;11.50;4.43;;;;;;;;;;5077455;28;20391;-59
2023/09/29 10:24:13;;;;;;;13.98;4.50;;;;;;;;;;5090386;28;20048;-59
2023/09/29 10:26:47;;;;;;;11.85;3.83;;;;;;;;;;5082083;28;20048;-59
2023/09/29 10:29:40;;;;;;;11.45;4.35;;;;;;;;;;5089304;28;20445;-59
2023/09/29 10:32:10;;;;;;;10.57;4.78;;;;;;;;;;5071305;28;20334;-59
2023/09/29 10:34:36;;;;;;;10.85;4.30;;;;;;;;;;5081399;28;20052;-59
2023/09/29 10:37:03;;;;;;;11.15;4.25;;;;;;;;;;5059345;28;20561;-59
2023/09/29 10:39:29;;;;;;;15.35;5.22;;;;;;;;;;5085369;28;20120;-59
2023/09/29 10:42:00;;;;;;;10.90;4.97;;;;;;;;;;5071017;28;20048;-59
2023/09/29 10:44:27;;;;;;;12.20;4.53;;;;;;;;;;5060567;28;20039;-59
2023/09/29 10:46:53;;;;;;;11.40;4.65;;;;;;;;;;5066693;28;20481;-58
2023/09/29 10:49:20;;;;;;;12.13;4.15;;;;;;;;;;5069341;28;20043;-60
2023/09/29 10:51:46;;;;;;;9.93;3.90;;;;;;;;;;5063936;28;20060;-59
2023/09/29 10:54:12;;;;;;;12.40;5.03;;;;;;;;;;5069388;28;20147;-58
2023/09/29 10:56:39;;;;;;;12.85;4.68;;;;;;;;;;5068848;28;20044;-58
2023/09/29 10:59:09;;;;;;;13.80;4.78;;;;;;;;;;5088008;28;20040;-58
2023/09/29 11:01:35;;;;;;;9.77;4.90;;;;;;;;;;5090793;28;20419;-58
2023/09/29 11:04:02;;;;;;;12.45;5.20;;;;;;;;;;5090447;28;20036;-58
2023/09/29 11:06:29;;;;;;;15.07;5.88;;;;;;;;;;5084783;28;20408;-58
2023/09/29 11:08:59;;;;;;;15.52;5.78;;;;;;;;;;5090442;28;20043;-58
2023/09/29 11:11:26;;;;;;;17.48;5.95;;;;;;;;;;5087258;28;20135;-58
2023/09/29 11:13:59;;;;;;;7.50;2.22;;;;;;;;;;5069550;28;20045;-58
2023/09/29 11:16:28;;;;;;;4.47;1.38;;;;;;;;;;5075723;28;20105;-58
2023/09/29 11:18:56;;;;;;;4.47;1.52;;;;;;;;;;5082121;28;20119;-58
2023/09/29 11:21:35;;;;;;;7.63;2.25;;;;;;;;;;5089929;28;20123;-58
2023/09/29 11:24:05;;;;;;;6.85;1.45;;;;;;;;;;5071815;28;20408;-58
2023/09/29 11:26:32;;;;;;;4.85;1.33;;;;;;;;;;5089643;28;20111;-58
2023/09/29 11:28:58;;;;;;;7.40;1.85;;;;;;;;;;5068506;28;20144;-58
2023/09/29 11:31:25;;;;;;;4.90;1.63;;;;;;;;;;5070062;28;20350;-58
2023/09/29 11:33:52;;;;;;;8.43;1.58;;;;;;;;;;5061515;28;20037;-58
2023/09/29 11:36:21;;;;;;;4.15;1.38;;;;;;;;;;5068466;28;20083;-57
2023/09/29 11:38:49;;;;;;;5.55;1.75;;;;;;;;;;5067578;28;20076;-58
2023/09/29 11:41:17;;;;;;;5.72;1.50;;;;;;;;;;5068567;28;20408;-58
2023/09/29 11:43:44;;;;;;;5.70;2.00;;;;;;;;;;5072040;28;20032;-57
2023/09/29 11:46:10;;;;;;;8.88;1.77;;;;;;;;;;5070204;28;20471;-58
2023/09/29 11:48:37;;;;;;;5.65;2.15;;;;;;;;;;5070433;28;20442;-58
2023/09/29 11:51:04;;;;;;;8.43;1.70;;;;;;;;;;5067993;28;20037;-58
2023/09/29 11:53:31;;;;;;;8.50;1.70;;;;;;;;;;5068897;28;20093;-58
2023/09/29 11:55:58;;;;;;;7.15;1.55;;;;;;;;;;5061482;28;20223;-58
2023/09/29 11:58:25;;;;;;;8.77;1.73;;;;;;;;;;5082924;28;20449;-58
2023/09/29 12:00:51;;;;;;;5.45;1.52;;;;;;;;;;5092974;28;20040;-58
2023/09/29 12:03:21;;;;;;;9.50;2.20;;;;;;;;;;5083511;28;20496;-58
2023/09/29 12:05:49;;;;;;;10.07;2.22;;;;;;;;;;5090351;28;20044;-58
2023/09/29 12:08:16;;;;;;;6.30;1.52;;;;;;;;;;5086171;28;20388;-58
2023/09/29 12:10:42;;;;;;;6.05;1.20;;;;;;;;;;5084379;28;20056;-58
2023/09/29 12:13:10;;;;;;;4.63;1.30;;;;;;;;;;5081886;28;20561;-58
2023/09/29 12:15:36;;;;;;;6.07;1.30;;;;;;;;;;5076752;28;20052;-58
2023/09/29 12:18:03;;;;;;;4.95;1.00;;;;;;;;;;5078221;28;20040;-58
2023/09/29 12:20:29;;;;;;;8.02;1.23;;;;;;;;;;5093564;28;20044;-58
2023/09/29 12:22:57;;;;;;;5.60;1.40;;;;;;;;;;5092656;28;20431;-58
2023/09/29 12:25:23;;;;;;;4.25;1.13;;;;;;;;;;5093439;28;20044;-58
2023/09/29 12:27:50;;;;;;;5.47;1.30;;;;;;;;;;5093091;28;20480;-58
2023/09/29 12:30:17;;;;;;;9.73;1.17;;;;;;;;;;5084009;28;20055;-58
2023/09/29 12:32:44;;;;;;;7.28;1.13;;;;;;;;;;5093311;28;20105;-59
2023/09/29 12:35:12;;;;;;;7.47;1.30;;;;;;;;;;5089997;28;20173;-58
2023/09/29 12:37:39;;;;;;;7.78;1.02;;;;;;;;;;5092361;28;20047;-58
2023/09/29 12:40:10;;;;;;;7.88;1.30;;;;;;;;;;5091906;28;20067;-58
2023/09/29 12:42:37;;;;;;;6.90;1.23;;;;;;;;;;5081023;28;20084;-58
2023/09/29 12:45:03;;;;;;;8.07;1.65;;;;;;;;;;5084514;28;20087;-58
2023/09/29 12:47:29;;;;;;;11.70;1.48;;;;;;;;;;5083560;28;20120;-58
2023/09/29 12:49:55;;;;;;;5.43;1.20;;;;;;;;;;5092049;28;20044;-58
2023/09/29 12:52:22;;;;;;;8.95;1.50;;;;;;;;;;5082176;28;20040;-58
2023/09/29 12:54:50;;;;;;;8.57;2.00;;;;;;;;;;5093002;28;20032;-58
2023/09/29 12:57:19;;;;;;;4.80;1.42;;;;;;;;;;5088251;28;20094;-58
2023/09/29 12:59:47;;;;;;;9.80;1.98;;;;;;;;;;5082177;28;20059;-58
2023/09/29 13:02:13;;;;;;;7.80;1.95;;;;;;;;;;5092720;28;20344;-58
2023/09/29 13:04:41;;;;;;;9.20;2.22;;;;;;;;;;5088875;28;20095;-58
2023/09/29 13:07:11;;;;;;;10.13;1.85;;;;;;;;;;5086555;28;20052;-58
2023/09/29 13:09:37;;;;;;;21.55;4.47;;;;;;;;;;5092573;28;20032;-58
2023/09/29 13:12:07;;;;;;;10.40;1.73;;;;;;;;;;5088484;28;20046;-59
2023/09/29 13:14:34;;;;;;;5.85;1.35;;;;;;;;;;5091959;28;20036;-58
2023/09/29 13:17:00;;;;;;;10.60;1.73;;;;;;;;;;5092543;28;20048;-58
2023/09/29 13:19:26;;;;;;;8.02;1.77;;;;;;;;;;5075633;28;20484;-59
2023/09/29 13:21:56;;;;;;;8.98;1.95;;;;;;;;;;5092330;28;20040;-58
2023/09/29 13:24:23;;;;;;;6.38;2.03;;;;;;;;;;5088709;28;20051;-58
2023/09/29 13:26:49;;;;;;;7.55;2.05;;;;;;;;;;5068910;28;20449;-58
2023/09/29 13:29:16;;;;;;;7.18;1.50;;;;;;;;;;5059855;28;20127;-58
2023/09/29 13:31:42;;;;;;;9.10;2.08;;;;;;;;;;5060098;28;20048;-58
2023/09/29 13:34:08;;;;;;;9.35;2.00;;;;;;;;;;5060712;28;20441;-58
2023/09/29 13:36:35;;;;;;;7.03;1.85;;;;;;;;;;5070914;28;20125;-58
2023/09/29 13:39:01;;;;;;;9.48;2.20;;;;;;;;;;5078063;28;20116;-58
2023/09/29 13:41:29;;;;;;;8.38;2.63;;;;;;;;;;5082754;28;20044;-58
2023/09/29 13:43:56;;;;;;;7.38;2.10;;;;;;;;;;5069416;28;20040;-58
2023/09/29 13:46:22;;;;;;;10.20;2.45;;;;;;;;;;5070594;28;20048;-58
2023/09/29 13:48:50;;;;;;;12.13;2.70;;;;;;;;;;5069575;28;20040;-58
2023/09/29 13:51:16;;;;;;;17.33;3.80;;;;;;;;;;5070721;28;20427;-58
2023/09/29 13:53:42;;;;;;;9.65;2.92;;;;;;;;;;5070388;28;20033;-59
2023/09/29 13:56:12;;;;;;;16.27;3.63;;;;;;;;;;5069617;28;20079;-58
2023/09/29 13:58:40;;;;;;;15.25;3.45;;;;;;;;;;5072678;28;20499;-58
2023/09/29 14:01:18;;;;;;;13.43;3.22;;;;;;;;;;5067352;28;20049;-58
2023/09/29 14:03:44;;;;;;;13.07;3.50;;;;;;;;;;5072189;28;20123;-58
2023/09/29 14:06:20;;;;;;;13.20;3.17;;;;;;;;;;5091590;28;20039;-58
2023/09/29 14:08:46;;;;;;;14.10;3.20;;;;;;;;;;5090598;28;20072;-58
2023/09/29 14:11:12;;;;;;;12.65;3.47;;;;;;;;;;5071839;28;20045;-58
2023/09/29 14:13:38;;;;;;;14.40;3.15;;;;;;;;;;5082132;28;20071;-59
2023/09/29 14:16:06;;;;;;;19.25;4.85;;;;;;;;;;5059058;28;20101;-58
2023/09/29 14:18:32;;;;;;;13.88;3.17;;;;;;;;;;5077643;28;20091;-58
2023/09/29 14:20:59;;;;;;;10.57;2.45;;;;;;;;;;5086737;28;20044;-58
2023/09/29 14:23:25;;;;;;;10.68;2.30;;;;;;;;;;5090673;28;20060;-58
2023/09/29 14:25:51;;;;;;;13.00;3.10;;;;;;;;;;5089405;28;20349;-58
2023/09/29 14:28:17;;;;;;;11.73;2.75;;;;;;;;;;5072913;28;20511;-58
2023/09/29 14:30:44;;;;;;;11.95;2.53;;;;;;;;;;5077653;28;20127;-58
2023/09/29 14:33:11;;;;;;;17.73;2.40;;;;;;;;;;5081240;28;20083;-58
2023/09/29 14:35:37;;;;;;;13.27;3.08;;;;;;;;;;5090076;28;20119;-58